Glasgow, MT (59230)

12:52 AM MDT on April 30, 2017 (GMT -0600)
| | Change Station

Elev -9999 ft 0.00 °N, 0.00 °E | Updated

Overcast
Overcast
°F
Feels Like °F
N
Wind Variable Wind from North
Gusts mph

Today
High -- | Low -- °F
--% Chance of Precip.
Yesterday
High -- | Low -- °F
Precip. -- in
Pressure 30.07 in
Visibility 10.0 miles
Clouds Scattered Clouds 7500 ft
Mostly Cloudy 9500 ft
Overcast 12000 ft
Dew Point Not available.
Humidity Not available.
Rainfall --
Snow Depth Not available.
5:48 AM 8:19 PM
Waxing Crescent, 20% visible
METAR KGGW 300553Z AUTO 00000KT 10SM SCT075 BKN095 OVC120 07/02 A3005 RMK AO2 SLP183 60000 T00720022 10150 20061 58011
Pressure 30.07 in
Visibility 10.0 miles
Clouds Scattered Clouds 7500 ft
Mostly Cloudy 9500 ft
Overcast 12000 ft
Dew Point Not available.
Humidity Not available.
Rainfall --
Snow Depth Not available.
5:48 AM 8:19 PM
Waxing Crescent, 20% visible
METAR KGGW 300553Z AUTO 00000KT 10SM SCT075 BKN095 OVC120 07/02 A3005 RMK AO2 SLP183 60000 T00720022 10150 20061 58011

Get Severe Weather Alerts

Thanks for signing up!

Be on the lookout for a verification email in your inbox.

You'll start receiving the daily forecast at 8 AM.

×

10-Day Weather Forecast

Almanac

Astronomy

Apr. 30, 2017 Rise Set
Actual Time
Civil Twilight
Nautical Twilight
Astronomical Twilight
Moon
Length of Visible Light
Length of Day
Tomorrow will be .
, % of the Moon is Illuminated

Today's Extremes

State Highs State Lows

Community

WunderPhotos

WunderBlog® & News

Nearby

Air Quality

  Air Quality AQ Index Pollutant
Not available.

Snow Depth

Station Depth Elevation

Earthquake Activity

City Distance Mag. Time & Date
Minimum magnitude displayed is 2.5.

Coastal Water Temperatures

Place Temperature

Stations

Nearby Weather Stations

Station Location Temp. Windchill Dew Point Humidity Wind Precip. Elev Updated Type
                   

Watches & Warnings

There are currently no watches in effect.